sensor_id;sensor_type;location;lat;lon;timestamp;P1;durP1;ratioP1;P2;durP2;ratioP2
9467;SDS011;4772;52.382;9.752;2023-04-03T00:00:55;6.87;;;2.33;;
9467;SDS011;4772;52.382;9.752;2023-04-03T00:03:21;3.07;;;2.10;;
9467;SDS011;4772;52.382;9.752;2023-04-03T00:05:47;6.30;;;1.80;;
9467;SDS011;4772;52.382;9.752;2023-04-03T00:08:13;5.57;;;1.93;;
9467;SDS011;4772;52.382;9.752;2023-04-03T00:10:39;7.03;;;2.17;;
9467;SDS011;4772;52.382;9.752;2023-04-03T00:13:05;4.00;;;2.13;;
9467;SDS011;4772;52.382;9.752;2023-04-03T00:15:32;4.33;;;1.80;;
9467;SDS011;4772;52.382;9.752;2023-04-03T00:17:58;5.97;;;1.90;;
9467;SDS011;4772;52.382;9.752;2023-04-03T00:20:24;3.27;;;1.80;;
9467;SDS011;4772;52.382;9.752;2023-04-03T00:22:50;5.47;;;1.70;;
9467;SDS011;4772;52.382;9.752;2023-04-03T00:25:16;5.27;;;1.73;;
9467;SDS011;4772;52.382;9.752;2023-04-03T00:27:42;4.90;;;1.93;;
9467;SDS011;4772;52.382;9.752;2023-04-03T00:30:09;5.40;;;2.20;;
9467;SDS011;4772;52.382;9.752;2023-04-03T00:32:36;5.03;;;1.70;;
9467;SDS011;4772;52.382;9.752;2023-04-03T00:35:02;5.17;;;2.17;;
9467;SDS011;4772;52.382;9.752;2023-04-03T00:37:28;6.27;;;2.20;;
9467;SDS011;4772;52.382;9.752;2023-04-03T00:39:54;3.53;;;1.70;;
9467;SDS011;4772;52.382;9.752;2023-04-03T00:42:20;5.37;;;2.00;;
9467;SDS011;4772;52.382;9.752;2023-04-03T00:47:13;4.13;;;1.80;;
9467;SDS011;4772;52.382;9.752;2023-04-03T00:49:41;6.23;;;2.30;;
9467;SDS011;4772;52.382;9.752;2023-04-03T00:52:08;7.30;;;2.33;;
9467;SDS011;4772;52.382;9.752;2023-04-03T00:54:37;5.83;;;2.00;;
9467;SDS011;4772;52.382;9.752;2023-04-03T00:57:03;3.97;;;1.83;;
9467;SDS011;4772;52.382;9.752;2023-04-03T00:59:31;5.80;;;2.03;;
9467;SDS011;4772;52.382;9.752;2023-04-03T01:01:59;3.43;;;1.90;;
9467;SDS011;4772;52.382;9.752;2023-04-03T01:04:29;3.57;;;1.63;;
9467;SDS011;4772;52.382;9.752;2023-04-03T01:06:56;5.13;;;2.20;;
9467;SDS011;4772;52.382;9.752;2023-04-03T01:09:23;6.70;;;2.20;;
9467;SDS011;4772;52.382;9.752;2023-04-03T01:11:49;4.37;;;2.17;;
9467;SDS011;4772;52.382;9.752;2023-04-03T01:14:15;7.30;;;2.40;;
9467;SDS011;4772;52.382;9.752;2023-04-03T01:16:41;9.83;;;2.40;;
9467;SDS011;4772;52.382;9.752;2023-04-03T01:19:07;5.63;;;2.13;;
9467;SDS011;4772;52.382;9.752;2023-04-03T01:24:16;5.53;;;2.00;;
9467;SDS011;4772;52.382;9.752;2023-04-03T01:26:44;5.23;;;1.90;;
9467;SDS011;4772;52.382;9.752;2023-04-03T01:29:10;4.47;;;1.60;;
9467;SDS011;4772;52.382;9.752;2023-04-03T01:34:05;4.07;;;1.77;;
9467;SDS011;4772;52.382;9.752;2023-04-03T01:36:31;4.63;;;1.97;;
9467;SDS011;4772;52.382;9.752;2023-04-03T01:38:58;5.03;;;2.03;;
9467;SDS011;4772;52.382;9.752;2023-04-03T01:41:24;5.20;;;1.80;;
9467;SDS011;4772;52.382;9.752;2023-04-03T01:43:51;3.33;;;1.63;;
9467;SDS011;4772;52.382;9.752;2023-04-03T01:46:17;7.37;;;2.73;;
9467;SDS011;4772;52.382;9.752;2023-04-03T01:48:43;4.77;;;2.17;;
9467;SDS011;4772;52.382;9.752;2023-04-03T01:51:09;7.23;;;2.10;;
9467;SDS011;4772;52.382;9.752;2023-04-03T01:53:35;6.20;;;2.00;;
9467;SDS011;4772;52.382;9.752;2023-04-03T01:56:01;7.43;;;2.00;;
9467;SDS011;4772;52.382;9.752;2023-04-03T01:58:27;8.23;;;1.93;;
9467;SDS011;4772;52.382;9.752;2023-04-03T02:00:53;4.70;;;2.00;;
9467;SDS011;4772;52.382;9.752;2023-04-03T02:03:19;3.80;;;1.87;;
9467;SDS011;4772;52.382;9.752;2023-04-03T02:05:45;4.03;;;1.87;;
9467;SDS011;4772;52.382;9.752;2023-04-03T02:08:11;6.03;;;2.03;;
9467;SDS011;4772;52.382;9.752;2023-04-03T02:10:38;6.53;;;1.93;;
9467;SDS011;4772;52.382;9.752;2023-04-03T02:13:04;3.53;;;2.03;;
9467;SDS011;4772;52.382;9.752;2023-04-03T02:15:30;4.77;;;1.90;;
9467;SDS011;4772;52.382;9.752;2023-04-03T02:17:55;4.17;;;1.90;;
9467;SDS011;4772;52.382;9.752;2023-04-03T02:20:21;5.40;;;2.10;;
9467;SDS011;4772;52.382;9.752;2023-04-03T02:22:47;3.77;;;2.03;;
9467;SDS011;4772;52.382;9.752;2023-04-03T02:25:13;4.23;;;1.80;;
9467;SDS011;4772;52.382;9.752;2023-04-03T02:27:40;4.40;;;2.30;;
9467;SDS011;4772;52.382;9.752;2023-04-03T02:30:06;4.77;;;1.73;;
9467;SDS011;4772;52.382;9.752;2023-04-03T02:32:34;5.77;;;2.03;;
9467;SDS011;4772;52.382;9.752;2023-04-03T02:35:00;4.73;;;1.43;;
9467;SDS011;4772;52.382;9.752;2023-04-03T02:37:26;5.87;;;2.30;;
9467;SDS011;4772;52.382;9.752;2023-04-03T02:39:52;4.30;;;1.73;;
9467;SDS011;4772;52.382;9.752;2023-04-03T02:42:18;7.73;;;2.27;;
9467;SDS011;4772;52.382;9.752;2023-04-03T02:44:44;4.03;;;1.90;;
9467;SDS011;4772;52.382;9.752;2023-04-03T02:47:10;6.03;;;2.20;;
9467;SDS011;4772;52.382;9.752;2023-04-03T02:49:36;6.60;;;1.90;;
9467;SDS011;4772;52.382;9.752;2023-04-03T02:52:02;7.30;;;2.27;;
9467;SDS011;4772;52.382;9.752;2023-04-03T02:54:28;5.87;;;2.30;;
9467;SDS011;4772;52.382;9.752;2023-04-03T02:56:55;4.70;;;1.87;;
9467;SDS011;4772;52.382;9.752;2023-04-03T02:59:21;5.13;;;2.47;;
9467;SDS011;4772;52.382;9.752;2023-04-03T03:01:47;5.57;;;1.90;;
9467;SDS011;4772;52.382;9.752;2023-04-03T03:04:13;6.10;;;2.03;;
9467;SDS011;4772;52.382;9.752;2023-04-03T03:06:39;4.83;;;2.23;;
9467;SDS011;4772;52.382;9.752;2023-04-03T03:09:06;4.37;;;2.37;;
9467;SDS011;4772;52.382;9.752;2023-04-03T03:11:32;5.87;;;2.17;;
9467;SDS011;4772;52.382;9.752;2023-04-03T03:13:58;7.63;;;2.57;;
9467;SDS011;4772;52.382;9.752;2023-04-03T03:16:24;6.67;;;2.10;;
9467;SDS011;4772;52.382;9.752;2023-04-03T03:18:50;4.83;;;2.30;;
9467;SDS011;4772;52.382;9.752;2023-04-03T03:21:16;8.07;;;2.30;;
9467;SDS011;4772;52.382;9.752;2023-04-03T03:23:42;8.93;;;2.20;;
9467;SDS011;4772;52.382;9.752;2023-04-03T03:26:09;5.43;;;2.20;;
9467;SDS011;4772;52.382;9.752;2023-04-03T03:28:36;5.00;;;1.90;;
9467;SDS011;4772;52.382;9.752;2023-04-03T03:31:02;8.00;;;2.57;;
9467;SDS011;4772;52.382;9.752;2023-04-03T03:33:29;6.33;;;2.33;;
9467;SDS011;4772;52.382;9.752;2023-04-03T03:35:55;5.80;;;2.07;;
9467;SDS011;4772;52.382;9.752;2023-04-03T03:38:22;3.67;;;2.07;;
9467;SDS011;4772;52.382;9.752;2023-04-03T03:40:48;6.30;;;2.07;;
9467;SDS011;4772;52.382;9.752;2023-04-03T03:43:14;7.93;;;2.30;;
9467;SDS011;4772;52.382;9.752;2023-04-03T03:45:40;6.90;;;2.13;;
9467;SDS011;4772;52.382;9.752;2023-04-03T03:48:06;8.87;;;2.00;;
9467;SDS011;4772;52.382;9.752;2023-04-03T03:50:32;5.43;;;2.00;;
9467;SDS011;4772;52.382;9.752;2023-04-03T03:52:58;5.60;;;2.10;;
9467;SDS011;4772;52.382;9.752;2023-04-03T03:55:25;4.90;;;2.13;;
9467;SDS011;4772;52.382;9.752;2023-04-03T03:57:51;7.57;;;2.13;;
9467;SDS011;4772;52.382;9.752;2023-04-03T04:00:17;6.00;;;1.97;;
9467;SDS011;4772;52.382;9.752;2023-04-03T04:02:43;4.90;;;2.10;;
9467;SDS011;4772;52.382;9.752;2023-04-03T04:05:09;4.03;;;2.10;;
9467;SDS011;4772;52.382;9.752;2023-04-03T04:07:35;4.07;;;1.87;;
9467;SDS011;4772;52.382;9.752;2023-04-03T04:10:01;6.40;;;2.20;;
9467;SDS011;4772;52.382;9.752;2023-04-03T04:12:27;6.50;;;2.10;;
9467;SDS011;4772;52.382;9.752;2023-04-03T04:14:53;3.37;;;1.77;;
9467;SDS011;4772;52.382;9.752;2023-04-03T04:17:19;6.87;;;2.03;;
9467;SDS011;4772;52.382;9.752;2023-04-03T04:19:45;3.37;;;1.90;;
9467;SDS011;4772;52.382;9.752;2023-04-03T04:22:11;4.47;;;2.33;;
9467;SDS011;4772;52.382;9.752;2023-04-03T04:24:37;4.53;;;2.13;;
9467;SDS011;4772;52.382;9.752;2023-04-03T04:27:03;5.23;;;2.20;;
9467;SDS011;4772;52.382;9.752;2023-04-03T04:29:29;7.87;;;2.10;;
9467;SDS011;4772;52.382;9.752;2023-04-03T04:32:00;4.43;;;2.00;;
9467;SDS011;4772;52.382;9.752;2023-04-03T04:34:26;5.50;;;2.10;;
9467;SDS011;4772;52.382;9.752;2023-04-03T04:36:52;5.77;;;2.23;;
9467;SDS011;4772;52.382;9.752;2023-04-03T04:39:18;5.40;;;2.00;;
9467;SDS011;4772;52.382;9.752;2023-04-03T04:41:43;7.13;;;2.10;;
9467;SDS011;4772;52.382;9.752;2023-04-03T04:44:09;3.93;;;1.90;;
9467;SDS011;4772;52.382;9.752;2023-04-03T04:46:35;5.77;;;2.10;;
9467;SDS011;4772;52.382;9.752;2023-04-03T04:49:01;7.73;;;2.40;;
9467;SDS011;4772;52.382;9.752;2023-04-03T04:51:27;3.70;;;2.00;;
9467;SDS011;4772;52.382;9.752;2023-04-03T04:53:53;4.50;;;2.30;;
9467;SDS011;4772;52.382;9.752;2023-04-03T04:56:19;5.03;;;2.30;;
9467;SDS011;4772;52.382;9.752;2023-04-03T04:58:45;5.00;;;2.20;;
9467;SDS011;4772;52.382;9.752;2023-04-03T05:01:11;6.17;;;1.90;;
9467;SDS011;4772;52.382;9.752;2023-04-03T05:03:37;7.47;;;2.40;;
9467;SDS011;4772;52.382;9.752;2023-04-03T05:06:03;7.10;;;2.37;;
9467;SDS011;4772;52.382;9.752;2023-04-03T05:08:30;7.30;;;2.07;;
9467;SDS011;4772;52.382;9.752;2023-04-03T05:10:56;7.67;;;2.80;;
9467;SDS011;4772;52.382;9.752;2023-04-03T05:13:22;7.93;;;2.47;;
9467;SDS011;4772;52.382;9.752;2023-04-03T05:15:48;7.93;;;2.50;;
9467;SDS011;4772;52.382;9.752;2023-04-03T05:18:14;8.33;;;2.30;;
9467;SDS011;4772;52.382;9.752;2023-04-03T05:20:40;5.07;;;2.53;;
9467;SDS011;4772;52.382;9.752;2023-04-03T05:23:06;5.13;;;2.20;;
9467;SDS011;4772;52.382;9.752;2023-04-03T05:25:32;5.53;;;2.13;;
9467;SDS011;4772;52.382;9.752;2023-04-03T05:27:58;5.97;;;2.40;;
9467;SDS011;4772;52.382;9.752;2023-04-03T05:30:24;5.07;;;2.27;;
9467;SDS011;4772;52.382;9.752;2023-04-03T05:32:51;8.20;;;2.30;;
9467;SDS011;4772;52.382;9.752;2023-04-03T05:35:17;6.23;;;2.37;;
9467;SDS011;4772;52.382;9.752;2023-04-03T05:37:43;6.37;;;2.30;;
9467;SDS011;4772;52.382;9.752;2023-04-03T05:40:09;5.47;;;2.63;;
9467;SDS011;4772;52.382;9.752;2023-04-03T05:42:35;4.53;;;2.00;;
9467;SDS011;4772;52.382;9.752;2023-04-03T05:45:01;4.93;;;2.20;;
9467;SDS011;4772;52.382;9.752;2023-04-03T05:47:27;5.97;;;2.17;;
9467;SDS011;4772;52.382;9.752;2023-04-03T05:49:53;5.13;;;2.40;;
9467;SDS011;4772;52.382;9.752;2023-04-03T05:52:26;9.03;;;2.30;;
9467;SDS011;4772;52.382;9.752;2023-04-03T05:54:52;4.30;;;2.07;;
9467;SDS011;4772;52.382;9.752;2023-04-03T05:57:18;7.07;;;2.23;;
9467;SDS011;4772;52.382;9.752;2023-04-03T05:59:45;6.43;;;2.50;;
9467;SDS011;4772;52.382;9.752;2023-04-03T06:02:15;5.90;;;2.43;;
9467;SDS011;4772;52.382;9.752;2023-04-03T06:04:41;6.27;;;1.93;;
9467;SDS011;4772;52.382;9.752;2023-04-03T06:07:10;4.70;;;1.80;;
9467;SDS011;4772;52.382;9.752;2023-04-03T06:09:37;7.03;;;2.47;;
9467;SDS011;4772;52.382;9.752;2023-04-03T06:12:03;3.60;;;2.13;;
9467;SDS011;4772;52.382;9.752;2023-04-03T06:14:29;5.40;;;2.10;;
9467;SDS011;4772;52.382;9.752;2023-04-03T06:16:55;7.00;;;2.27;;
9467;SDS011;4772;52.382;9.752;2023-04-03T06:19:21;5.17;;;2.03;;
9467;SDS011;4772;52.382;9.752;2023-04-03T06:21:47;4.97;;;1.90;;
9467;SDS011;4772;52.382;9.752;2023-04-03T06:24:14;5.87;;;2.40;;
9467;SDS011;4772;52.382;9.752;2023-04-03T06:26:40;6.07;;;1.87;;
9467;SDS011;4772;52.382;9.752;2023-04-03T06:29:07;8.50;;;2.30;;
9467;SDS011;4772;52.382;9.752;2023-04-03T06:31:32;5.93;;;1.73;;
9467;SDS011;4772;52.382;9.752;2023-04-03T06:33:58;5.00;;;1.77;;
9467;SDS011;4772;52.382;9.752;2023-04-03T06:36:25;4.93;;;1.73;;
9467;SDS011;4772;52.382;9.752;2023-04-03T06:38:51;4.70;;;1.87;;
9467;SDS011;4772;52.382;9.752;2023-04-03T06:41:17;6.73;;;2.13;;
9467;SDS011;4772;52.382;9.752;2023-04-03T06:43:43;4.30;;;1.83;;
9467;SDS011;4772;52.382;9.752;2023-04-03T06:46:16;5.43;;;2.33;;
9467;SDS011;4772;52.382;9.752;2023-04-03T06:48:42;7.70;;;1.90;;
9467;SDS011;4772;52.382;9.752;2023-04-03T06:51:19;4.63;;;1.73;;
9467;SDS011;4772;52.382;9.752;2023-04-03T06:53:49;4.30;;;2.10;;
9467;SDS011;4772;52.382;9.752;2023-04-03T06:56:15;6.17;;;1.60;;
9467;SDS011;4772;52.382;9.752;2023-04-03T06:58:41;5.30;;;2.30;;
9467;SDS011;4772;52.382;9.752;2023-04-03T07:01:08;6.23;;;2.40;;
9467;SDS011;4772;52.382;9.752;2023-04-03T07:03:35;3.93;;;2.00;;
9467;SDS011;4772;52.382;9.752;2023-04-03T07:06:01;3.20;;;1.77;;
9467;SDS011;4772;52.382;9.752;2023-04-03T07:08:28;5.53;;;1.80;;
9467;SDS011;4772;52.382;9.752;2023-04-03T07:10:54;3.07;;;1.70;;
9467;SDS011;4772;52.382;9.752;2023-04-03T07:13:20;4.90;;;1.90;;
9467;SDS011;4772;52.382;9.752;2023-04-03T07:15:46;5.43;;;1.97;;
9467;SDS011;4772;52.382;9.752;2023-04-03T07:18:13;5.07;;;2.10;;
9467;SDS011;4772;52.382;9.752;2023-04-03T07:20:39;4.70;;;1.93;;
9467;SDS011;4772;52.382;9.752;2023-04-03T07:23:05;4.90;;;1.60;;
9467;SDS011;4772;52.382;9.752;2023-04-03T07:25:31;5.53;;;1.63;;
9467;SDS011;4772;52.382;9.752;2023-04-03T07:27:58;3.77;;;1.50;;
9467;SDS011;4772;52.382;9.752;2023-04-03T07:30:24;4.67;;;1.57;;
9467;SDS011;4772;52.382;9.752;2023-04-03T07:32:51;3.07;;;1.67;;
9467;SDS011;4772;52.382;9.752;2023-04-03T07:35:17;2.97;;;1.50;;
9467;SDS011;4772;52.382;9.752;2023-04-03T07:37:43;3.97;;;1.80;;
9467;SDS011;4772;52.382;9.752;2023-04-03T07:40:09;4.07;;;1.40;;
9467;SDS011;4772;52.382;9.752;2023-04-03T07:42:35;4.33;;;1.60;;
9467;SDS011;4772;52.382;9.752;2023-04-03T07:45:02;2.83;;;1.60;;
9467;SDS011;4772;52.382;9.752;2023-04-03T07:47:29;3.50;;;1.73;;
9467;SDS011;4772;52.382;9.752;2023-04-03T07:49:55;3.70;;;1.73;;
9467;SDS011;4772;52.382;9.752;2023-04-03T07:52:22;3.20;;;1.40;;
9467;SDS011;4772;52.382;9.752;2023-04-03T07:54:48;4.17;;;1.60;;
9467;SDS011;4772;52.382;9.752;2023-04-03T07:57:14;4.43;;;1.67;;
9467;SDS011;4772;52.382;9.752;2023-04-03T07:59:40;3.20;;;1.80;;
9467;SDS011;4772;52.382;9.752;2023-04-03T08:02:09;2.23;;;1.50;;
9467;SDS011;4772;52.382;9.752;2023-04-03T08:04:35;5.20;;;1.60;;
9467;SDS011;4772;52.382;9.752;2023-04-03T08:07:01;6.90;;;1.73;;
9467;SDS011;4772;52.382;9.752;2023-04-03T08:09:27;3.37;;;1.60;;
9467;SDS011;4772;52.382;9.752;2023-04-03T08:11:53;3.43;;;1.40;;
9467;SDS011;4772;52.382;9.752;2023-04-03T08:14:19;3.10;;;1.47;;
9467;SDS011;4772;52.382;9.752;2023-04-03T08:16:46;2.50;;;1.37;;
9467;SDS011;4772;52.382;9.752;2023-04-03T08:19:13;4.07;;;1.73;;
9467;SDS011;4772;52.382;9.752;2023-04-03T08:21:40;2.93;;;1.27;;
9467;SDS011;4772;52.382;9.752;2023-04-03T08:24:06;2.40;;;1.30;;
9467;SDS011;4772;52.382;9.752;2023-04-03T08:26:33;5.33;;;1.60;;
9467;SDS011;4772;52.382;9.752;2023-04-03T08:28:59;4.10;;;1.30;;
9467;SDS011;4772;52.382;9.752;2023-04-03T08:31:25;3.20;;;1.47;;
9467;SDS011;4772;52.382;9.752;2023-04-03T08:33:51;4.03;;;1.50;;
9467;SDS011;4772;52.382;9.752;2023-04-03T08:36:18;5.63;;;1.53;;
9467;SDS011;4772;52.382;9.752;2023-04-03T08:38:45;3.17;;;1.43;;
9467;SDS011;4772;52.382;9.752;2023-04-03T08:43:41;2.57;;;1.53;;
9467;SDS011;4772;52.382;9.752;2023-04-03T08:46:10;4.83;;;1.50;;
9467;SDS011;4772;52.382;9.752;2023-04-03T08:48:39;4.30;;;1.20;;
9467;SDS011;4772;52.382;9.752;2023-04-03T08:51:17;3.07;;;1.27;;
9467;SDS011;4772;52.382;9.752;2023-04-03T08:53:46;5.67;;;2.20;;
9467;SDS011;4772;52.382;9.752;2023-04-03T08:56:17;4.30;;;1.53;;
9467;SDS011;4772;52.382;9.752;2023-04-03T09:01:20;3.40;;;1.47;;
9467;SDS011;4772;52.382;9.752;2023-04-03T09:03:47;3.00;;;1.20;;
9467;SDS011;4772;52.382;9.752;2023-04-03T09:06:20;3.67;;;1.43;;
9467;SDS011;4772;52.382;9.752;2023-04-03T09:08:51;4.68;;;1.30;;
9467;SDS011;4772;52.382;9.752;2023-04-03T09:11:21;2.45;;;1.17;;
9467;SDS011;4772;52.382;9.752;2023-04-03T09:13:52;2.70;;;1.27;;
9467;SDS011;4772;52.382;9.752;2023-04-03T09:18:52;3.50;;;1.30;;
9467;SDS011;4772;52.382;9.752;2023-04-03T09:21:22;3.00;;;1.50;;
9467;SDS011;4772;52.382;9.752;2023-04-03T09:23:55;3.13;;;1.33;;
9467;SDS011;4772;52.382;9.752;2023-04-03T09:26:30;2.67;;;1.27;;
9467;SDS011;4772;52.382;9.752;2023-04-03T09:28:59;2.60;;;1.30;;
9467;SDS011;4772;52.382;9.752;2023-04-03T09:31:27;2.83;;;1.43;;
9467;SDS011;4772;52.382;9.752;2023-04-03T09:33:55;1.93;;;1.07;;
9467;SDS011;4772;52.382;9.752;2023-04-03T09:39:11;4.10;;;1.20;;
9467;SDS011;4772;52.382;9.752;2023-04-03T09:41:37;2.10;;;1.40;;
9467;SDS011;4772;52.382;9.752;2023-04-03T09:44:04;2.70;;;1.30;;
9467;SDS011;4772;52.382;9.752;2023-04-03T09:46:45;2.73;;;1.13;;
9467;SDS011;4772;52.382;9.752;2023-04-03T09:49:12;3.63;;;1.47;;
9467;SDS011;4772;52.382;9.752;2023-04-03T09:51:38;1.67;;;1.10;;
9467;SDS011;4772;52.382;9.752;2023-04-03T09:57:12;2.90;;;1.00;;
9467;SDS011;4772;52.382;9.752;2023-04-03T09:59:56;2.53;;;1.30;;
9467;SDS011;4772;52.382;9.752;2023-04-03T10:04:51;2.42;;;1.17;;
9467;SDS011;4772;52.382;9.752;2023-04-03T10:07:34;3.60;;;1.30;;
9467;SDS011;4772;52.382;9.752;2023-04-03T10:10:03;4.07;;;1.50;;
9467;SDS011;4772;52.382;9.752;2023-04-03T10:12:42;2.55;;;1.33;;
9467;SDS011;4772;52.382;9.752;2023-04-03T10:15:11;3.10;;;1.40;;
9467;SDS011;4772;52.382;9.752;2023-04-03T10:23:18;2.40;;;1.27;;
9467;SDS011;4772;52.382;9.752;2023-04-03T10:35:46;3.40;;;1.30;;
9467;SDS011;4772;52.382;9.752;2023-04-03T10:46:07;1.93;;;1.43;;
9467;SDS011;4772;52.382;9.752;2023-04-03T10:48:44;2.30;;;1.40;;
9467;SDS011;4772;52.382;9.752;2023-04-03T10:59:13;2.50;;;1.40;;
9467;SDS011;4772;52.382;9.752;2023-04-03T11:01:42;1.60;;;1.30;;
9467;SDS011;4772;52.382;9.752;2023-04-03T11:04:10;3.50;;;1.50;;
9467;SDS011;4772;52.382;9.752;2023-04-03T11:07:12;2.33;;;1.40;;
9467;SDS011;4772;52.382;9.752;2023-04-03T11:09:30;6.93;;;1.33;;
9467;SDS011;4772;52.382;9.752;2023-04-03T11:12:02;3.20;;;1.40;;
9467;SDS011;4772;52.382;9.752;2023-04-03T11:14:34;1.60;;;1.00;;
9467;SDS011;4772;52.382;9.752;2023-04-03T11:19:41;2.80;;;1.57;;
9467;SDS011;4772;52.382;9.752;2023-04-03T11:22:27;3.03;;;1.30;;
9467;SDS011;4772;52.382;9.752;2023-04-03T11:24:57;2.27;;;1.23;;
9467;SDS011;4772;52.382;9.752;2023-04-03T11:27:25;2.83;;;1.27;;
9467;SDS011;4772;52.382;9.752;2023-04-03T11:29:55;2.50;;;1.13;;
9467;SDS011;4772;52.382;9.752;2023-04-03T11:32:27;3.83;;;1.27;;
9467;SDS011;4772;52.382;9.752;2023-04-03T11:34:59;3.37;;;1.20;;
9467;SDS011;4772;52.382;9.752;2023-04-03T11:37:39;4.00;;;1.20;;
9467;SDS011;4772;52.382;9.752;2023-04-03T11:40:08;2.77;;;1.50;;
9467;SDS011;4772;52.382;9.752;2023-04-03T11:42:49;4.10;;;1.40;;
9467;SDS011;4772;52.382;9.752;2023-04-03T11:45:27;2.50;;;1.40;;
9467;SDS011;4772;52.382;9.752;2023-04-03T11:48:43;2.03;;;1.40;;
9467;SDS011;4772;52.382;9.752;2023-04-03T11:53:38;2.67;;;1.67;;
9467;SDS011;4772;52.382;9.752;2023-04-03T12:01:49;6.83;;;2.73;;
9467;SDS011;4772;52.382;9.752;2023-04-03T12:04:16;2.53;;;1.30;;
9467;SDS011;4772;52.382;9.752;2023-04-03T12:11:54;3.67;;;1.33;;
9467;SDS011;4772;52.382;9.752;2023-04-03T12:14:22;2.80;;;1.40;;
9467;SDS011;4772;52.382;9.752;2023-04-03T12:16:50;4.40;;;1.50;;
9467;SDS011;4772;52.382;9.752;2023-04-03T12:19:30;3.17;;;1.30;;
9467;SDS011;4772;52.382;9.752;2023-04-03T12:24:34;3.33;;;1.23;;
9467;SDS011;4772;52.382;9.752;2023-04-03T12:37:15;2.97;;;1.33;;
9467;SDS011;4772;52.382;9.752;2023-04-03T12:39:45;2.60;;;1.20;;
9467;SDS011;4772;52.382;9.752;2023-04-03T12:42:56;2.50;;;1.10;;
9467;SDS011;4772;52.382;9.752;2023-04-03T12:47:31;2.03;;;1.20;;
9467;SDS011;4772;52.382;9.752;2023-04-03T12:49:58;2.20;;;1.20;;
9467;SDS011;4772;52.382;9.752;2023-04-03T12:54:58;4.93;;;1.73;;
9467;SDS011;4772;52.382;9.752;2023-04-03T12:57:25;2.87;;;2.10;;
9467;SDS011;4772;52.382;9.752;2023-04-03T12:59:52;4.43;;;1.80;;
9467;SDS011;4772;52.382;9.752;2023-04-03T13:02:25;2.97;;;1.58;;
9467;SDS011;4772;52.382;9.752;2023-04-03T13:04:53;2.23;;;1.40;;
9467;SDS011;4772;52.382;9.752;2023-04-03T13:07:24;2.10;;;1.03;;
9467;SDS011;4772;52.382;9.752;2023-04-03T13:09:55;2.30;;;1.23;;
9467;SDS011;4772;52.382;9.752;2023-04-03T13:12:21;2.07;;;1.10;;
9467;SDS011;4772;52.382;9.752;2023-04-03T13:14:51;2.63;;;1.50;;
9467;SDS011;4772;52.382;9.752;2023-04-03T13:17:17;2.43;;;1.50;;
9467;SDS011;4772;52.382;9.752;2023-04-03T13:19:44;3.30;;;1.40;;
9467;SDS011;4772;52.382;9.752;2023-04-03T13:24:41;2.40;;;1.20;;
9467;SDS011;4772;52.382;9.752;2023-04-03T13:27:10;2.97;;;2.07;;
9467;SDS011;4772;52.382;9.752;2023-04-03T13:29:37;1.67;;;1.17;;
9467;SDS011;4772;52.382;9.752;2023-04-03T13:32:04;3.77;;;1.40;;
9467;SDS011;4772;52.382;9.752;2023-04-03T13:34:36;2.43;;;1.20;;
9467;SDS011;4772;52.382;9.752;2023-04-03T13:37:02;3.53;;;1.57;;
9467;SDS011;4772;52.382;9.752;2023-04-03T13:39:36;2.37;;;1.40;;
9467;SDS011;4772;52.382;9.752;2023-04-03T13:42:25;4.10;;;1.20;;
9467;SDS011;4772;52.382;9.752;2023-04-03T13:45:05;2.07;;;1.30;;
9467;SDS011;4772;52.382;9.752;2023-04-03T13:47:38;2.13;;;1.40;;
9467;SDS011;4772;52.382;9.752;2023-04-03T13:50:13;3.97;;;1.33;;
9467;SDS011;4772;52.382;9.752;2023-04-03T13:55:15;5.17;;;1.60;;
9467;SDS011;4772;52.382;9.752;2023-04-03T14:02:47;2.17;;;1.20;;
9467;SDS011;4772;52.382;9.752;2023-04-03T14:05:13;1.40;;;1.20;;
9467;SDS011;4772;52.382;9.752;2023-04-03T14:07:41;2.90;;;1.30;;
9467;SDS011;4772;52.382;9.752;2023-04-03T14:10:07;2.43;;;1.30;;
9467;SDS011;4772;52.382;9.752;2023-04-03T14:12:34;2.10;;;1.30;;
9467;SDS011;4772;52.382;9.752;2023-04-03T14:15:01;3.43;;;1.27;;
9467;SDS011;4772;52.382;9.752;2023-04-03T14:17:27;2.23;;;1.20;;
9467;SDS011;4772;52.382;9.752;2023-04-03T14:19:54;2.80;;;1.40;;
9467;SDS011;4772;52.382;9.752;2023-04-03T14:22:25;3.73;;;1.33;;
9467;SDS011;4772;52.382;9.752;2023-04-03T14:24:51;1.70;;;1.13;;
9467;SDS011;4772;52.382;9.752;2023-04-03T14:27:22;2.73;;;1.47;;
9467;SDS011;4772;52.382;9.752;2023-04-03T14:29:49;2.33;;;1.30;;
9467;SDS011;4772;52.382;9.752;2023-04-03T14:32:16;3.03;;;1.40;;
9467;SDS011;4772;52.382;9.752;2023-04-03T14:34:43;2.70;;;1.20;;
9467;SDS011;4772;52.382;9.752;2023-04-03T14:37:13;2.83;;;1.53;;
9467;SDS011;4772;52.382;9.752;2023-04-03T14:39:41;2.53;;;1.33;;
9467;SDS011;4772;52.382;9.752;2023-04-03T14:42:11;3.60;;;1.10;;
9467;SDS011;4772;52.382;9.752;2023-04-03T14:44:37;2.07;;;1.23;;
9467;SDS011;4772;52.382;9.752;2023-04-03T14:47:03;2.80;;;1.50;;
9467;SDS011;4772;52.382;9.752;2023-04-03T14:49:29;2.03;;;1.17;;
9467;SDS011;4772;52.382;9.752;2023-04-03T14:51:56;3.13;;;1.40;;
9467;SDS011;4772;52.382;9.752;2023-04-03T14:54:22;3.10;;;1.27;;
9467;SDS011;4772;52.382;9.752;2023-04-03T14:56:52;3.03;;;1.30;;
9467;SDS011;4772;52.382;9.752;2023-04-03T14:59:19;5.73;;;1.37;;
9467;SDS011;4772;52.382;9.752;2023-04-03T15:01:46;4.13;;;1.40;;
9467;SDS011;4772;52.382;9.752;2023-04-03T15:04:18;2.67;;;1.10;;
9467;SDS011;4772;52.382;9.752;2023-04-03T15:06:45;3.03;;;1.40;;
9467;SDS011;4772;52.382;9.752;2023-04-03T15:09:17;3.10;;;1.43;;
9467;SDS011;4772;52.382;9.752;2023-04-03T15:11:45;2.27;;;1.20;;
9467;SDS011;4772;52.382;9.752;2023-04-03T15:14:11;2.43;;;1.33;;
9467;SDS011;4772;52.382;9.752;2023-04-03T15:16:37;2.23;;;1.40;;
9467;SDS011;4772;52.382;9.752;2023-04-03T15:19:03;2.10;;;1.30;;
9467;SDS011;4772;52.382;9.752;2023-04-03T15:21:29;2.20;;;1.20;;
9467;SDS011;4772;52.382;9.752;2023-04-03T15:23:55;5.40;;;1.43;;
9467;SDS011;4772;52.382;9.752;2023-04-03T15:26:21;6.37;;;3.33;;
9467;SDS011;4772;52.382;9.752;2023-04-03T15:28:47;3.63;;;1.80;;
9467;SDS011;4772;52.382;9.752;2023-04-03T15:31:13;3.17;;;1.60;;
9467;SDS011;4772;52.382;9.752;2023-04-03T15:33:39;3.17;;;1.40;;
9467;SDS011;4772;52.382;9.752;2023-04-03T15:36:05;4.20;;;1.50;;
9467;SDS011;4772;52.382;9.752;2023-04-03T15:38:31;3.43;;;1.87;;
9467;SDS011;4772;52.382;9.752;2023-04-03T15:40:57;1.90;;;1.30;;
9467;SDS011;4772;52.382;9.752;2023-04-03T15:43:23;3.33;;;1.40;;
9467;SDS011;4772;52.382;9.752;2023-04-03T15:45:49;1.63;;;1.00;;
9467;SDS011;4772;52.382;9.752;2023-04-03T15:48:16;2.60;;;1.20;;
9467;SDS011;4772;52.382;9.752;2023-04-03T15:50:42;2.53;;;1.27;;
9467;SDS011;4772;52.382;9.752;2023-04-03T15:53:08;2.03;;;1.23;;
9467;SDS011;4772;52.382;9.752;2023-04-03T15:55:35;1.93;;;1.50;;
9467;SDS011;4772;52.382;9.752;2023-04-03T15:58:02;3.83;;;1.60;;
9467;SDS011;4772;52.382;9.752;2023-04-03T16:00:28;3.03;;;1.70;;
9467;SDS011;4772;52.382;9.752;2023-04-03T16:02:59;2.67;;;1.50;;
9467;SDS011;4772;52.382;9.752;2023-04-03T16:05:26;3.50;;;1.63;;
9467;SDS011;4772;52.382;9.752;2023-04-03T16:07:52;2.83;;;1.60;;
9467;SDS011;4772;52.382;9.752;2023-04-03T16:10:20;2.97;;;1.67;;
9467;SDS011;4772;52.382;9.752;2023-04-03T16:12:46;2.57;;;1.57;;
9467;SDS011;4772;52.382;9.752;2023-04-03T16:15:12;2.10;;;1.30;;
9467;SDS011;4772;52.382;9.752;2023-04-03T16:17:38;4.50;;;1.70;;
9467;SDS011;4772;52.382;9.752;2023-04-03T16:20:06;2.00;;;1.50;;
9467;SDS011;4772;52.382;9.752;2023-04-03T16:22:32;3.07;;;1.90;;
9467;SDS011;4772;52.382;9.752;2023-04-03T16:24:58;2.53;;;1.53;;
9467;SDS011;4772;52.382;9.752;2023-04-03T16:27:24;2.47;;;1.53;;
9467;SDS011;4772;52.382;9.752;2023-04-03T16:29:55;3.27;;;1.60;;
9467;SDS011;4772;52.382;9.752;2023-04-03T16:32:21;2.47;;;1.50;;
9467;SDS011;4772;52.382;9.752;2023-04-03T16:34:48;3.43;;;1.60;;
9467;SDS011;4772;52.382;9.752;2023-04-03T16:37:14;2.40;;;1.40;;
9467;SDS011;4772;52.382;9.752;2023-04-03T16:39:40;2.20;;;1.37;;
9467;SDS011;4772;52.382;9.752;2023-04-03T16:42:06;3.03;;;1.60;;
9467;SDS011;4772;52.382;9.752;2023-04-03T16:44:34;3.77;;;1.50;;
9467;SDS011;4772;52.382;9.752;2023-04-03T16:47:00;2.80;;;1.70;;
9467;SDS011;4772;52.382;9.752;2023-04-03T16:49:26;2.83;;;1.67;;
9467;SDS011;4772;52.382;9.752;2023-04-03T16:51:57;3.57;;;1.57;;
9467;SDS011;4772;52.382;9.752;2023-04-03T16:54:23;3.17;;;1.50;;
9467;SDS011;4772;52.382;9.752;2023-04-03T16:56:49;4.03;;;1.70;;